sensor_id;sensor_type;location;lat;lon;timestamp;P1;durP1;ratioP1;P2;durP2;ratioP2
68872;SDS011;55907;50.806;12.882;2023-03-01T00:00:08;20.7;;;13.8;;
68872;SDS011;55907;50.806;12.882;2023-03-01T00:03:09;22.4;;;14.0;;
68872;SDS011;55907;50.806;12.882;2023-03-01T00:06:10;21.8;;;14.1;;
68872;SDS011;55907;50.806;12.882;2023-03-01T00:09:12;22.1;;;14.1;;
68872;SDS011;55907;50.806;12.882;2023-03-01T00:12:14;21.2;;;13.9;;
68872;SDS011;55907;50.806;12.882;2023-03-01T00:15:15;21.8;;;14.6;;
68872;SDS011;55907;50.806;12.882;2023-03-01T00:18:17;22.8;;;14.7;;
68872;SDS011;55907;50.806;12.882;2023-03-01T00:21:19;22.9;;;14.8;;
68872;SDS011;55907;50.806;12.882;2023-03-01T00:24:20;22.6;;;14.8;;
68872;SDS011;55907;50.806;12.882;2023-03-01T00:27:22;22.7;;;15.2;;
68872;SDS011;55907;50.806;12.882;2023-03-01T00:30:23;22.1;;;14.5;;
68872;SDS011;55907;50.806;12.882;2023-03-01T00:36:27;24.4;;;15.0;;
68872;SDS011;55907;50.806;12.882;2023-03-01T00:39:28;24.0;;;15.3;;
68872;SDS011;55907;50.806;12.882;2023-03-01T00:42:30;26.3;;;16.1;;
68872;SDS011;55907;50.806;12.882;2023-03-01T00:45:32;25.1;;;15.0;;
68872;SDS011;55907;50.806;12.882;2023-03-01T00:48:33;25.0;;;15.2;;
68872;SDS011;55907;50.806;12.882;2023-03-01T00:51:35;26.2;;;15.8;;
68872;SDS011;55907;50.806;12.882;2023-03-01T00:54:37;26.0;;;15.6;;
68872;SDS011;55907;50.806;12.882;2023-03-01T00:57:38;31.7;;;18.1;;
68872;SDS011;55907;50.806;12.882;2023-03-01T01:00:40;29.9;;;17.3;;
68872;SDS011;55907;50.806;12.882;2023-03-01T01:03:41;29.3;;;16.9;;
68872;SDS011;55907;50.806;12.882;2023-03-01T01:06:44;29.7;;;17.5;;
68872;SDS011;55907;50.806;12.882;2023-03-01T01:09:45;27.1;;;17.4;;
68872;SDS011;55907;50.806;12.882;2023-03-01T01:12:47;26.6;;;17.1;;
68872;SDS011;55907;50.806;12.882;2023-03-01T01:15:48;26.9;;;16.8;;
68872;SDS011;55907;50.806;12.882;2023-03-01T01:18:50;24.4;;;15.8;;
68872;SDS011;55907;50.806;12.882;2023-03-01T01:21:52;25.4;;;16.3;;
68872;SDS011;55907;50.806;12.882;2023-03-01T01:24:53;23.4;;;15.3;;
68872;SDS011;55907;50.806;12.882;2023-03-01T01:27:55;25.7;;;16.0;;
68872;SDS011;55907;50.806;12.882;2023-03-01T01:30:56;25.4;;;15.9;;
68872;SDS011;55907;50.806;12.882;2023-03-01T01:33:58;24.6;;;16.0;;
68872;SDS011;55907;50.806;12.882;2023-03-01T01:37:00;29.2;;;17.8;;
68872;SDS011;55907;50.806;12.882;2023-03-01T01:40:02;24.5;;;16.1;;
68872;SDS011;55907;50.806;12.882;2023-03-01T01:43:04;26.6;;;16.2;;
68872;SDS011;55907;50.806;12.882;2023-03-01T01:46:05;24.3;;;15.3;;
68872;SDS011;55907;50.806;12.882;2023-03-01T01:49:07;22.6;;;14.3;;
68872;SDS011;55907;50.806;12.882;2023-03-01T01:52:09;23.2;;;14.6;;
68872;SDS011;55907;50.806;12.882;2023-03-01T01:55:11;23.5;;;15.2;;
68872;SDS011;55907;50.806;12.882;2023-03-01T01:58:12;23.8;;;14.8;;
68872;SDS011;55907;50.806;12.882;2023-03-01T02:01:13;23.0;;;15.0;;
68872;SDS011;55907;50.806;12.882;2023-03-01T02:04:15;22.9;;;14.9;;
68872;SDS011;55907;50.806;12.882;2023-03-01T02:07:17;23.0;;;15.7;;
68872;SDS011;55907;50.806;12.882;2023-03-01T02:10:18;23.4;;;15.3;;
68872;SDS011;55907;50.806;12.882;2023-03-01T02:13:20;23.1;;;14.7;;
68872;SDS011;55907;50.806;12.882;2023-03-01T02:16:22;21.9;;;14.2;;
68872;SDS011;55907;50.806;12.882;2023-03-01T02:19:27;23.9;;;14.1;;
68872;SDS011;55907;50.806;12.882;2023-03-01T02:22:25;22.8;;;14.1;;
68872;SDS011;55907;50.806;12.882;2023-03-01T02:25:28;24.1;;;14.2;;
68872;SDS011;55907;50.806;12.882;2023-03-01T02:28:30;21.6;;;13.8;;
68872;SDS011;55907;50.806;12.882;2023-03-01T02:34:31;23.3;;;14.8;;
68872;SDS011;55907;50.806;12.882;2023-03-01T02:37:33;26.4;;;15.9;;
68872;SDS011;55907;50.806;12.882;2023-03-01T02:40:35;24.3;;;15.5;;
68872;SDS011;55907;50.806;12.882;2023-03-01T02:43:36;25.5;;;15.4;;
68872;SDS011;55907;50.806;12.882;2023-03-01T02:46:44;28.5;;;16.2;;
68872;SDS011;55907;50.806;12.882;2023-03-01T02:49:40;27.4;;;16.6;;
68872;SDS011;55907;50.806;12.882;2023-03-01T02:52:43;27.6;;;17.5;;
68872;SDS011;55907;50.806;12.882;2023-03-01T02:55:43;27.4;;;16.4;;
68872;SDS011;55907;50.806;12.882;2023-03-01T02:58:45;27.1;;;16.4;;
68872;SDS011;55907;50.806;12.882;2023-03-01T03:01:47;25.1;;;15.1;;
68872;SDS011;55907;50.806;12.882;2023-03-01T03:04:48;26.6;;;16.4;;
68872;SDS011;55907;50.806;12.882;2023-03-01T03:07:50;25.5;;;16.3;;
68872;SDS011;55907;50.806;12.882;2023-03-01T03:10:52;26.6;;;16.6;;
68872;SDS011;55907;50.806;12.882;2023-03-01T03:13:53;27.6;;;16.2;;
68872;SDS011;55907;50.806;12.882;2023-03-01T03:16:55;26.2;;;16.2;;
68872;SDS011;55907;50.806;12.882;2023-03-01T03:19:56;25.3;;;15.8;;
68872;SDS011;55907;50.806;12.882;2023-03-01T03:22:58;25.6;;;15.9;;
68872;SDS011;55907;50.806;12.882;2023-03-01T03:26:00;23.4;;;13.9;;
68872;SDS011;55907;50.806;12.882;2023-03-01T03:29:02;24.0;;;14.6;;
68872;SDS011;55907;50.806;12.882;2023-03-01T03:32:03;24.6;;;14.8;;
68872;SDS011;55907;50.806;12.882;2023-03-01T03:35:06;23.3;;;14.2;;
68872;SDS011;55907;50.806;12.882;2023-03-01T03:38:08;24.4;;;15.5;;
68872;SDS011;55907;50.806;12.882;2023-03-01T03:41:08;23.7;;;14.3;;
68872;SDS011;55907;50.806;12.882;2023-03-01T03:44:10;22.7;;;14.7;;
68872;SDS011;55907;50.806;12.882;2023-03-01T03:47:12;21.7;;;14.4;;
68872;SDS011;55907;50.806;12.882;2023-03-01T03:50:14;21.0;;;13.4;;
68872;SDS011;55907;50.806;12.882;2023-03-01T03:53:15;24.8;;;14.9;;
68872;SDS011;55907;50.806;12.882;2023-03-01T03:56:17;23.3;;;14.8;;
68872;SDS011;55907;50.806;12.882;2023-03-01T03:59:18;24.3;;;15.0;;
68872;SDS011;55907;50.806;12.882;2023-03-01T04:02:20;24.9;;;14.8;;
68872;SDS011;55907;50.806;12.882;2023-03-01T04:05:22;24.1;;;14.8;;
68872;SDS011;55907;50.806;12.882;2023-03-01T04:08:23;24.2;;;14.6;;
68872;SDS011;55907;50.806;12.882;2023-03-01T04:11:25;25.3;;;14.6;;
68872;SDS011;55907;50.806;12.882;2023-03-01T04:14:27;25.7;;;14.2;;
68872;SDS011;55907;50.806;12.882;2023-03-01T04:17:28;24.9;;;14.6;;
68872;SDS011;55907;50.806;12.882;2023-03-01T04:20:31;25.3;;;15.1;;
68872;SDS011;55907;50.806;12.882;2023-03-01T04:23:32;22.2;;;13.6;;
68872;SDS011;55907;50.806;12.882;2023-03-01T04:26:33;24.4;;;14.2;;
68872;SDS011;55907;50.806;12.882;2023-03-01T04:29:35;23.5;;;14.5;;
68872;SDS011;55907;50.806;12.882;2023-03-01T04:32:37;25.0;;;14.7;;
68872;SDS011;55907;50.806;12.882;2023-03-01T04:35:38;26.6;;;15.6;;
68872;SDS011;55907;50.806;12.882;2023-03-01T04:38:40;27.6;;;15.4;;
68872;SDS011;55907;50.806;12.882;2023-03-01T04:41:42;24.5;;;15.1;;
68872;SDS011;55907;50.806;12.882;2023-03-01T04:44:43;22.0;;;13.5;;
68872;SDS011;55907;50.806;12.882;2023-03-01T04:47:45;20.1;;;13.3;;
68872;SDS011;55907;50.806;12.882;2023-03-01T04:50:47;21.4;;;13.1;;
68872;SDS011;55907;50.806;12.882;2023-03-01T04:53:49;21.8;;;12.8;;
68872;SDS011;55907;50.806;12.882;2023-03-01T04:56:50;20.9;;;12.9;;
68872;SDS011;55907;50.806;12.882;2023-03-01T04:59:52;23.5;;;13.8;;
68872;SDS011;55907;50.806;12.882;2023-03-01T05:02:54;22.5;;;13.2;;
68872;SDS011;55907;50.806;12.882;2023-03-01T05:05:58;23.0;;;13.5;;
68872;SDS011;55907;50.806;12.882;2023-03-01T05:08:57;22.4;;;14.2;;
68872;SDS011;55907;50.806;12.882;2023-03-01T05:11:59;24.3;;;15.2;;
68872;SDS011;55907;50.806;12.882;2023-03-01T05:15:00;24.5;;;14.9;;
68872;SDS011;55907;50.806;12.882;2023-03-01T05:18:02;23.7;;;14.0;;
68872;SDS011;55907;50.806;12.882;2023-03-01T05:21:05;22.5;;;14.0;;
68872;SDS011;55907;50.806;12.882;2023-03-01T05:24:06;21.1;;;12.7;;
68872;SDS011;55907;50.806;12.882;2023-03-01T05:27:07;24.2;;;13.7;;
68872;SDS011;55907;50.806;12.882;2023-03-01T05:30:10;23.2;;;13.3;;
68872;SDS011;55907;50.806;12.882;2023-03-01T05:33:10;23.3;;;12.9;;
68872;SDS011;55907;50.806;12.882;2023-03-01T05:36:12;22.3;;;13.1;;
68872;SDS011;55907;50.806;12.882;2023-03-01T05:37:48;unavailable;;;unavailable;;
68872;SDS011;55907;50.806;12.882;2023-03-01T05:39:14;20.3;;;12.5;;
68872;SDS011;55907;50.806;12.882;2023-03-01T05:42:15;22.4;;;13.0;;
68872;SDS011;55907;50.806;12.882;2023-03-01T05:42:33;22.4;;;13.0;;
68872;SDS011;55907;50.806;12.882;2023-03-01T05:42:33;unavailable;;;unavailable;;
68872;SDS011;55907;50.806;12.882;2023-03-01T05:45:17;21.2;;;12.3;;
68872;SDS011;55907;50.806;12.882;2023-03-01T05:48:19;21.5;;;13.0;;
68872;SDS011;55907;50.806;12.882;2023-03-01T05:51:20;22.5;;;13.8;;
68872;SDS011;55907;50.806;12.882;2023-03-01T05:54:22;23.5;;;14.2;;
68872;SDS011;55907;50.806;12.882;2023-03-01T05:57:24;22.0;;;13.7;;
68872;SDS011;55907;50.806;12.882;2023-03-01T06:00:26;27.4;;;15.0;;
68872;SDS011;55907;50.806;12.882;2023-03-01T06:03:27;22.5;;;14.0;;
68872;SDS011;55907;50.806;12.882;2023-03-01T06:06:29;22.1;;;14.1;;
68872;SDS011;55907;50.806;12.882;2023-03-01T06:09:31;22.8;;;13.8;;
68872;SDS011;55907;50.806;12.882;2023-03-01T06:12:32;21.8;;;13.7;;
68872;SDS011;55907;50.806;12.882;2023-03-01T06:15:34;23.9;;;15.0;;
68872;SDS011;55907;50.806;12.882;2023-03-01T06:18:36;25.1;;;14.9;;
68872;SDS011;55907;50.806;12.882;2023-03-01T06:21:37;24.6;;;14.5;;
68872;SDS011;55907;50.806;12.882;2023-03-01T06:27:41;23.6;;;14.3;;
68872;SDS011;55907;50.806;12.882;2023-03-01T06:30:42;24.9;;;14.6;;
68872;SDS011;55907;50.806;12.882;2023-03-01T06:33:44;21.9;;;13.2;;
68872;SDS011;55907;50.806;12.882;2023-03-01T06:36:46;22.4;;;13.8;;
68872;SDS011;55907;50.806;12.882;2023-03-01T06:39:47;21.3;;;13.2;;
68872;SDS011;55907;50.806;12.882;2023-03-01T06:42:49;21.0;;;12.7;;
68872;SDS011;55907;50.806;12.882;2023-03-01T06:48:52;22.1;;;13.8;;
68872;SDS011;55907;50.806;12.882;2023-03-01T06:51:54;22.4;;;13.5;;
68872;SDS011;55907;50.806;12.882;2023-03-01T06:54:56;22.1;;;13.8;;
68872;SDS011;55907;50.806;12.882;2023-03-01T06:57:57;22.4;;;14.2;;
68872;SDS011;55907;50.806;12.882;2023-03-01T07:00:59;22.5;;;15.1;;
68872;SDS011;55907;50.806;12.882;2023-03-01T07:04:01;28.8;;;17.8;;
68872;SDS011;55907;50.806;12.882;2023-03-01T07:07:02;27.4;;;16.1;;
68872;SDS011;55907;50.806;12.882;2023-03-01T07:10:04;22.1;;;14.6;;
68872;SDS011;55907;50.806;12.882;2023-03-01T07:13:05;23.4;;;14.7;;
68872;SDS011;55907;50.806;12.882;2023-03-01T07:16:07;24.0;;;16.0;;
68872;SDS011;55907;50.806;12.882;2023-03-01T07:19:09;23.3;;;14.6;;
68872;SDS011;55907;50.806;12.882;2023-03-01T07:22:10;22.1;;;14.6;;
68872;SDS011;55907;50.806;12.882;2023-03-01T07:25:12;27.0;;;16.0;;
68872;SDS011;55907;50.806;12.882;2023-03-01T07:28:14;25.2;;;16.0;;
68872;SDS011;55907;50.806;12.882;2023-03-01T07:31:15;23.4;;;15.6;;
68872;SDS011;55907;50.806;12.882;2023-03-01T07:34:17;24.5;;;16.1;;
68872;SDS011;55907;50.806;12.882;2023-03-01T07:37:18;26.4;;;16.6;;
68872;SDS011;55907;50.806;12.882;2023-03-01T07:40:20;25.4;;;15.9;;
68872;SDS011;55907;50.806;12.882;2023-03-01T07:43:22;26.8;;;17.3;;
68872;SDS011;55907;50.806;12.882;2023-03-01T07:46:23;26.2;;;18.0;;
68872;SDS011;55907;50.806;12.882;2023-03-01T07:49:25;27.4;;;17.2;;
68872;SDS011;55907;50.806;12.882;2023-03-01T07:52:27;24.4;;;16.3;;
68872;SDS011;55907;50.806;12.882;2023-03-01T07:55:28;28.1;;;15.9;;
68872;SDS011;55907;50.806;12.882;2023-03-01T07:58:30;22.5;;;14.9;;
68872;SDS011;55907;50.806;12.882;2023-03-01T08:01:31;21.0;;;14.9;;
68872;SDS011;55907;50.806;12.882;2023-03-01T08:04:33;22.1;;;15.3;;
68872;SDS011;55907;50.806;12.882;2023-03-01T08:07:35;21.6;;;14.7;;
68872;SDS011;55907;50.806;12.882;2023-03-01T08:10:36;22.1;;;16.1;;
68872;SDS011;55907;50.806;12.882;2023-03-01T08:13:38;23.2;;;17.3;;
68872;SDS011;55907;50.806;12.882;2023-03-01T08:16:39;24.4;;;17.2;;
68872;SDS011;55907;50.806;12.882;2023-03-01T08:19:42;27.4;;;18.4;;
68872;SDS011;55907;50.806;12.882;2023-03-01T08:22:43;24.2;;;17.8;;
68872;SDS011;55907;50.806;12.882;2023-03-01T08:25:44;27.0;;;18.9;;
68872;SDS011;55907;50.806;12.882;2023-03-01T08:28:46;25.3;;;18.0;;
68872;SDS011;55907;50.806;12.882;2023-03-01T08:31:47;26.1;;;19.3;;
68872;SDS011;55907;50.806;12.882;2023-03-01T08:34:49;25.7;;;18.8;;
68872;SDS011;55907;50.806;12.882;2023-03-01T08:37:50;26.2;;;19.4;;
68872;SDS011;55907;50.806;12.882;2023-03-01T08:40:52;24.7;;;19.4;;
68872;SDS011;55907;50.806;12.882;2023-03-01T08:43:54;25.8;;;20.0;;
68872;SDS011;55907;50.806;12.882;2023-03-01T08:46:55;23.6;;;18.9;;
68872;SDS011;55907;50.806;12.882;2023-03-01T08:49:57;23.3;;;16.8;;
68872;SDS011;55907;50.806;12.882;2023-03-01T08:52:58;20.2;;;10.8;;
68872;SDS011;55907;50.806;12.882;2023-03-01T08:56:00;16.9;;;10.5;;
68872;SDS011;55907;50.806;12.882;2023-03-01T08:59:01;17.1;;;11.1;;
68872;SDS011;55907;50.806;12.882;2023-03-01T09:02:03;15.4;;;10.3;;
68872;SDS011;55907;50.806;12.882;2023-03-01T09:05:04;20.2;;;11.7;;
68872;SDS011;55907;50.806;12.882;2023-03-01T09:08:06;17.9;;;11.5;;
68872;SDS011;55907;50.806;12.882;2023-03-01T09:11:09;14.0;;;10.3;;
68872;SDS011;55907;50.806;12.882;2023-03-01T09:14:09;25.5;;;16.1;;
68872;SDS011;55907;50.806;12.882;2023-03-01T09:17:10;15.2;;;10.4;;
68872;SDS011;55907;50.806;12.882;2023-03-01T09:20:11;14.9;;;10.1;;
68872;SDS011;55907;50.806;12.882;2023-03-01T09:23:13;13.8;;;10.4;;
68872;SDS011;55907;50.806;12.882;2023-03-01T09:26:15;15.0;;;10.7;;
68872;SDS011;55907;50.806;12.882;2023-03-01T09:29:16;14.6;;;9.9;;
68872;SDS011;55907;50.806;12.882;2023-03-01T09:32:17;14.3;;;10.4;;
68872;SDS011;55907;50.806;12.882;2023-03-01T09:35:19;15.1;;;10.3;;
68872;SDS011;55907;50.806;12.882;2023-03-01T09:38:20;15.7;;;10.6;;
68872;SDS011;55907;50.806;12.882;2023-03-01T09:41:29;15.5;;;10.9;;
68872;SDS011;55907;50.806;12.882;2023-03-01T09:44:25;14.4;;;10.4;;
68872;SDS011;55907;50.806;12.882;2023-03-01T09:47:25;15.9;;;10.7;;
68872;SDS011;55907;50.806;12.882;2023-03-01T09:50:27;15.7;;;10.4;;
68872;SDS011;55907;50.806;12.882;2023-03-01T09:53:30;16.0;;;10.6;;
68872;SDS011;55907;50.806;12.882;2023-03-01T09:56:30;16.5;;;11.7;;
68872;SDS011;55907;50.806;12.882;2023-03-01T09:59:31;20.0;;;12.4;;
68872;SDS011;55907;50.806;12.882;2023-03-01T10:02:35;16.2;;;10.8;;
68872;SDS011;55907;50.806;12.882;2023-03-01T10:05:38;15.0;;;11.3;;
68872;SDS011;55907;50.806;12.882;2023-03-01T10:08:35;15.5;;;10.5;;
68872;SDS011;55907;50.806;12.882;2023-03-01T10:11:37;16.4;;;10.8;;
68872;SDS011;55907;50.806;12.882;2023-03-01T10:14:38;18.2;;;13.4;;
68872;SDS011;55907;50.806;12.882;2023-03-01T10:17:39;15.4;;;11.3;;
68872;SDS011;55907;50.806;12.882;2023-03-01T10:23:41;14.7;;;11.0;;
68872;SDS011;55907;50.806;12.882;2023-03-01T10:26:46;15.0;;;11.5;;
68872;SDS011;55907;50.806;12.882;2023-03-01T10:29:46;15.2;;;10.8;;
68872;SDS011;55907;50.806;12.882;2023-03-01T10:32:45;14.6;;;11.0;;
68872;SDS011;55907;50.806;12.882;2023-03-01T10:35:47;17.1;;;12.1;;
68872;SDS011;55907;50.806;12.882;2023-03-01T10:38:49;14.9;;;11.2;;
68872;SDS011;55907;50.806;12.882;2023-03-01T10:41:59;14.4;;;11.0;;
68872;SDS011;55907;50.806;12.882;2023-03-01T10:44:51;14.9;;;10.8;;
68872;SDS011;55907;50.806;12.882;2023-03-01T10:51:04;16.0;;;11.6;;
68872;SDS011;55907;50.806;12.882;2023-03-01T10:53:55;23.5;;;15.9;;
68872;SDS011;55907;50.806;12.882;2023-03-01T10:56:57;17.5;;;13.1;;
68872;SDS011;55907;50.806;12.882;2023-03-01T11:00:10;16.2;;;11.5;;
68872;SDS011;55907;50.806;12.882;2023-03-01T11:03:09;14.8;;;11.0;;
68872;SDS011;55907;50.806;12.882;2023-03-01T11:06:03;14.0;;;10.7;;
68872;SDS011;55907;50.806;12.882;2023-03-01T11:09:12;16.3;;;11.3;;
68872;SDS011;55907;50.806;12.882;2023-03-01T11:12:05;14.3;;;11.1;;
68872;SDS011;55907;50.806;12.882;2023-03-01T11:15:08;15.1;;;10.6;;
68872;SDS011;55907;50.806;12.882;2023-03-01T11:18:15;14.1;;;11.1;;
68872;SDS011;55907;50.806;12.882;2023-03-01T11:21:08;15.0;;;10.9;;
68872;SDS011;55907;50.806;12.882;2023-03-01T11:27:15;14.2;;;10.7;;
68872;SDS011;55907;50.806;12.882;2023-03-01T11:30:15;19.7;;;13.3;;
68872;SDS011;55907;50.806;12.882;2023-03-01T11:33:16;21.1;;;13.8;;
68872;SDS011;55907;50.806;12.882;2023-03-01T11:39:18;20.2;;;14.1;;
68872;SDS011;55907;50.806;12.882;2023-03-01T11:45:20;20.5;;;13.6;;
68872;SDS011;55907;50.806;12.882;2023-03-01T11:48:26;19.5;;;13.6;;
68872;SDS011;55907;50.806;12.882;2023-03-01T11:51:24;20.9;;;13.9;;
68872;SDS011;55907;50.806;12.882;2023-03-01T11:54:30;20.2;;;13.9;;
68872;SDS011;55907;50.806;12.882;2023-03-01T11:57:33;21.0;;;14.2;;
68872;SDS011;55907;50.806;12.882;2023-03-01T12:00:34;22.0;;;13.9;;
68872;SDS011;55907;50.806;12.882;2023-03-01T12:03:30;22.1;;;14.1;;
68872;SDS011;55907;50.806;12.882;2023-03-01T12:06:35;20.4;;;13.6;;
68872;SDS011;55907;50.806;12.882;2023-03-01T12:09:39;22.7;;;13.7;;
68872;SDS011;55907;50.806;12.882;2023-03-01T12:12:36;21.5;;;13.6;;
68872;SDS011;55907;50.806;12.882;2023-03-01T12:15:40;20.7;;;14.1;;
68872;SDS011;55907;50.806;12.882;2023-03-01T12:21:41;20.9;;;13.5;;
68872;SDS011;55907;50.806;12.882;2023-03-01T12:24:47;24.2;;;14.8;;
68872;SDS011;55907;50.806;12.882;2023-03-01T12:27:46;22.0;;;14.8;;
68872;SDS011;55907;50.806;12.882;2023-03-01T12:30:48;23.7;;;14.6;;
68872;SDS011;55907;50.806;12.882;2023-03-01T12:33:45;20.7;;;14.3;;
68872;SDS011;55907;50.806;12.882;2023-03-01T12:36:50;21.9;;;15.6;;
68872;SDS011;55907;50.806;12.882;2023-03-01T12:39:50;22.9;;;17.2;;
68872;SDS011;55907;50.806;12.882;2023-03-01T12:42:51;21.2;;;16.4;;
68872;SDS011;55907;50.806;12.882;2023-03-01T12:45:53;27.0;;;21.1;;
68872;SDS011;55907;50.806;12.882;2023-03-01T12:48:54;25.6;;;20.9;;
68872;SDS011;55907;50.806;12.882;2023-03-01T12:51:54;25.2;;;20.9;;
68872;SDS011;55907;50.806;12.882;2023-03-01T12:54:55;25.6;;;22.8;;
68872;SDS011;55907;50.806;12.882;2023-03-01T12:57:59;28.3;;;22.7;;
68872;SDS011;55907;50.806;12.882;2023-03-01T13:01:01;28.5;;;22.8;;
68872;SDS011;55907;50.806;12.882;2023-03-01T13:04:04;27.9;;;23.0;;
68872;SDS011;55907;50.806;12.882;2023-03-01T13:07:05;27.5;;;22.9;;
68872;SDS011;55907;50.806;12.882;2023-03-01T13:10:06;26.7;;;22.2;;
68872;SDS011;55907;50.806;12.882;2023-03-01T13:13:12;26.9;;;21.7;;
68872;SDS011;55907;50.806;12.882;2023-03-01T13:19:08;29.1;;;22.9;;
68872;SDS011;55907;50.806;12.882;2023-03-01T13:25:13;29.0;;;23.6;;
68872;SDS011;55907;50.806;12.882;2023-03-01T13:43:25;29.3;;;24.4;;
68872;SDS011;55907;50.806;12.882;2023-03-01T13:46:21;28.4;;;23.9;;
68872;SDS011;55907;50.806;12.882;2023-03-01T13:49:23;30.4;;;24.6;;
68872;SDS011;55907;50.806;12.882;2023-03-01T13:52:32;30.2;;;24.6;;
68872;SDS011;55907;50.806;12.882;2023-03-01T13:55:27;28.2;;;23.3;;
68872;SDS011;55907;50.806;12.882;2023-03-01T13:58:28;29.8;;;24.3;;
68872;SDS011;55907;50.806;12.882;2023-03-01T14:01:30;30.3;;;23.6;;
68872;SDS011;55907;50.806;12.882;2023-03-01T14:04:31;29.7;;;24.1;;
68872;SDS011;55907;50.806;12.882;2023-03-01T14:07:32;25.8;;;22.4;;
68872;SDS011;55907;50.806;12.882;2023-03-01T14:10:36;31.9;;;23.8;;
68872;SDS011;55907;50.806;12.882;2023-03-01T14:13:38;26.1;;;21.1;;
68872;SDS011;55907;50.806;12.882;2023-03-01T14:16:38;28.5;;;23.0;;
68872;SDS011;55907;50.806;12.882;2023-03-01T14:19:38;27.9;;;22.5;;
68872;SDS011;55907;50.806;12.882;2023-03-01T14:22:40;28.2;;;23.4;;
68872;SDS011;55907;50.806;12.882;2023-03-01T14:25:46;25.9;;;21.2;;
68872;SDS011;55907;50.806;12.882;2023-03-01T14:28:42;29.1;;;24.2;;
68872;SDS011;55907;50.806;12.882;2023-03-01T14:31:44;29.3;;;22.7;;
68872;SDS011;55907;50.806;12.882;2023-03-01T14:34:46;28.3;;;22.8;;
68872;SDS011;55907;50.806;12.882;2023-03-01T14:37:47;29.0;;;23.6;;
68872;SDS011;55907;50.806;12.882;2023-03-01T14:40:50;25.9;;;21.8;;
68872;SDS011;55907;50.806;12.882;2023-03-01T14:43:51;28.2;;;23.0;;
68872;SDS011;55907;50.806;12.882;2023-03-01T14:46:52;28.9;;;23.3;;
68872;SDS011;55907;50.806;12.882;2023-03-01T14:49:55;28.7;;;22.6;;
68872;SDS011;55907;50.806;12.882;2023-03-01T14:52:55;27.4;;;22.8;;
68872;SDS011;55907;50.806;12.882;2023-03-01T14:55:59;27.2;;;21.7;;
68872;SDS011;55907;50.806;12.882;2023-03-01T14:58:58;28.6;;;21.5;;
68872;SDS011;55907;50.806;12.882;2023-03-01T15:01:59;26.9;;;22.2;;
68872;SDS011;55907;50.806;12.882;2023-03-01T15:05:02;26.5;;;22.0;;
68872;SDS011;55907;50.806;12.882;2023-03-01T15:08:03;27.1;;;21.9;;
68872;SDS011;55907;50.806;12.882;2023-03-01T15:11:05;26.7;;;21.3;;
68872;SDS011;55907;50.806;12.882;2023-03-01T15:20:15;28.0;;;21.2;;
68872;SDS011;55907;50.806;12.882;2023-03-01T15:23:17;25.6;;;20.7;;
68872;SDS011;55907;50.806;12.882;2023-03-01T15:29:15;25.5;;;20.9;;
68872;SDS011;55907;50.806;12.882;2023-03-01T15:38:27;26.8;;;21.3;;
68872;SDS011;55907;50.806;12.882;2023-03-01T15:44:25;23.3;;;19.7;;
68872;SDS011;55907;50.806;12.882;2023-03-01T15:47:24;26.6;;;19.5;;
68872;SDS011;55907;50.806;12.882;2023-03-01T15:50:25;23.8;;;18.5;;
68872;SDS011;55907;50.806;12.882;2023-03-01T15:53:26;23.9;;;19.1;;
68872;SDS011;55907;50.806;12.882;2023-03-01T15:56:27;27.3;;;22.2;;
68872;SDS011;55907;50.806;12.882;2023-03-01T15:59:29;23.4;;;19.0;;
68872;SDS011;55907;50.806;12.882;2023-03-01T16:02:30;22.1;;;17.7;;
68872;SDS011;55907;50.806;12.882;2023-03-01T16:05:33;21.7;;;17.9;;
68872;SDS011;55907;50.806;12.882;2023-03-01T16:08:34;24.1;;;19.5;;
68872;SDS011;55907;50.806;12.882;2023-03-01T16:11:35;23.5;;;18.0;;
68872;SDS011;55907;50.806;12.882;2023-03-01T16:14:37;25.8;;;18.4;;
68872;SDS011;55907;50.806;12.882;2023-03-01T16:17:38;24.5;;;18.3;;
68872;SDS011;55907;50.806;12.882;2023-03-01T16:20:40;23.1;;;17.2;;
68872;SDS011;55907;50.806;12.882;2023-03-01T16:23:42;23.3;;;18.4;;
68872;SDS011;55907;50.806;12.882;2023-03-01T16:26:43;23.0;;;17.6;;
68872;SDS011;55907;50.806;12.882;2023-03-01T16:29:45;21.5;;;17.2;;
68872;SDS011;55907;50.806;12.882;2023-03-01T16:32:46;21.9;;;17.6;;
68872;SDS011;55907;50.806;12.882;2023-03-01T16:35:48;22.3;;;17.7;;
68872;SDS011;55907;50.806;12.882;2023-03-01T16:38:50;23.7;;;17.5;;
68872;SDS011;55907;50.806;12.882;2023-03-01T16:41:51;24.3;;;17.3;;
68872;SDS011;55907;50.806;12.882;2023-03-01T16:44:54;22.8;;;16.6;;
68872;SDS011;55907;50.806;12.882;2023-03-01T16:47:54;25.0;;;17.6;;
68872;SDS011;55907;50.806;12.882;2023-03-01T16:50:56;23.7;;;16.8;;
68872;SDS011;55907;50.806;12.882;2023-03-01T16:53:57;24.0;;;17.4;;
68872;SDS011;55907;50.806;12.882;2023-03-01T16:56:59;25.8;;;18.0;;
68872;SDS011;55907;50.806;12.882;2023-03-01T17:00:01;33.0;;;22.6;;
68872;SDS011;55907;50.806;12.882;2023-03-01T17:03:02;28.4;;;18.6;;
68872;SDS011;55907;50.806;12.882;2023-03-01T17:06:04;24.2;;;17.0;;
68872;SDS011;55907;50.806;12.882;2023-03-01T17:09:05;26.3;;;17.1;;
68872;SDS011;55907;50.806;12.882;2023-03-01T17:12:07;24.5;;;16.5;;
68872;SDS011;55907;50.806;12.882;2023-03-01T17:15:09;22.9;;;16.4;;
68872;SDS011;55907;50.806;12.882;2023-03-01T17:18:10;28.3;;;19.0;;
68872;SDS011;55907;50.806;12.882;2023-03-01T17:21:12;28.9;;;19.1;;
68872;SDS011;55907;50.806;12.882;2023-03-01T17:24:13;25.9;;;18.0;;
68872;SDS011;55907;50.806;12.882;2023-03-01T17:27:15;27.3;;;17.8;;
68872;SDS011;55907;50.806;12.882;2023-03-01T17:30:16;25.2;;;16.3;;
68872;SDS011;55907;50.806;12.882;2023-03-01T17:33:18;22.6;;;15.9;;
68872;SDS011;55907;50.806;12.882;2023-03-01T17:36:20;24.9;;;17.2;;
68872;SDS011;55907;50.806;12.882;2023-03-01T17:39:21;25.8;;;17.5;;
68872;SDS011;55907;50.806;12.882;2023-03-01T17:42:23;24.5;;;17.5;;
68872;SDS011;55907;50.806;12.882;2023-03-01T17:45:24;26.0;;;18.2;;
68872;SDS011;55907;50.806;12.882;2023-03-01T17:48:26;26.1;;;18.2;;
68872;SDS011;55907;50.806;12.882;2023-03-01T17:51:28;25.9;;;18.1;;
68872;SDS011;55907;50.806;12.882;2023-03-01T17:54:29;26.2;;;18.8;;
68872;SDS011;55907;50.806;12.882;2023-03-01T17:57:31;24.0;;;16.8;;
68872;SDS011;55907;50.806;12.882;2023-03-01T18:00:33;26.8;;;17.2;;
68872;SDS011;55907;50.806;12.882;2023-03-01T18:03:34;25.5;;;17.3;;
68872;SDS011;55907;50.806;12.882;2023-03-01T18:06:36;27.9;;;17.9;;
68872;SDS011;55907;50.806;12.882;2023-03-01T18:09:37;28.1;;;18.6;;
68872;SDS011;55907;50.806;12.882;2023-03-01T18:12:39;26.6;;;18.4;;
68872;SDS011;55907;50.806;12.882;2023-03-01T18:15:40;24.3;;;16.8;;
68872;SDS011;55907;50.806;12.882;2023-03-01T18:18:42;25.9;;;17.6;;
68872;SDS011;55907;50.806;12.882;2023-03-01T18:21:43;26.2;;;18.3;;
68872;SDS011;55907;50.806;12.882;2023-03-01T18:24:45;27.1;;;17.5;;
68872;SDS011;55907;50.806;12.882;2023-03-01T18:27:47;27.6;;;17.7;;
68872;SDS011;55907;50.806;12.882;2023-03-01T18:30:48;28.9;;;18.1;;
68872;SDS011;55907;50.806;12.882;2023-03-01T18:33:51;25.9;;;17.4;;
68872;SDS011;55907;50.806;12.882;2023-03-01T18:36:52;27.3;;;17.0;;
68872;SDS011;55907;50.806;12.882;2023-03-01T18:42:55;28.3;;;17.7;;
68872;SDS011;55907;50.806;12.882;2023-03-01T18:45:57;26.5;;;16.8;;
68872;SDS011;55907;50.806;12.882;2023-03-01T18:48:58;28.2;;;17.5;;
68872;SDS011;55907;50.806;12.882;2023-03-01T18:51:59;26.5;;;17.4;;
68872;SDS011;55907;50.806;12.882;2023-03-01T18:55:01;30.3;;;17.6;;
68872;SDS011;55907;50.806;12.882;2023-03-01T18:58:03;29.9;;;17.7;;